Time;durP1;ratioP1;P1;durP2;ratioP2;P2;SDS_P1;SDS_P2;PMS_P1;PMS_P2;Temp;Humidity;BMP_temperature;BMP_pressure;BME280_temperature;BME280_humidity;BME280_pressure;Samples;Min_cycle;Max_cycle;Signal;HPM_P1;HPM_P2
2023/05/10 00:00:33;;;;;;;13.35;9.60;;;14.00;99.90;;;;;;5054705;28;20041;-77
2023/05/10 00:02:59;;;;;;;12.20;8.60;;;13.90;99.90;;;;;;5032733;28;20036;-77
2023/05/10 00:05:25;;;;;;;12.43;8.80;;;13.90;99.90;;;;;;5058631;28;20040;-76
2023/05/10 00:07:51;;;;;;;12.02;7.45;;;13.80;99.90;;;;;;5047392;28;20281;-76
2023/05/10 00:10:16;;;;;;;11.73;7.57;;;13.70;99.90;;;;;;5048338;28;20118;-76
2023/05/10 00:12:42;;;;;;;11.48;7.65;;;13.70;99.90;;;;;;5058386;28;20119;-76
2023/05/10 00:15:08;;;;;;;13.45;7.78;;;13.60;99.90;;;;;;5043515;28;20052;-76
2023/05/10 00:17:34;;;;;;;11.75;7.70;;;13.60;99.90;;;;;;5054909;28;20044;-76
2023/05/10 00:20:00;;;;;;;12.05;7.75;;;13.50;99.90;;;;;;5044991;28;20660;-76
2023/05/10 00:22:26;;;;;;;11.52;7.28;;;13.50;99.90;;;;;;5060719;28;20067;-76
2023/05/10 00:24:51;;;;;;;12.07;7.65;;;13.50;99.90;;;;;;5041006;28;20055;-76
2023/05/10 00:27:17;;;;;;;12.38;7.95;;;13.50;99.90;;;;;;5039227;28;20250;-76
2023/05/10 00:29:43;;;;;;;12.52;8.23;;;13.50;99.90;;;;;;5047523;28;20107;-76
2023/05/10 00:32:08;;;;;;;13.50;8.18;;;13.40;99.90;;;;;;5050550;28;20032;-76
2023/05/10 00:34:34;;;;;;;12.63;7.57;;;13.40;99.90;;;;;;5044396;28;20386;-76
2023/05/10 00:37:00;;;;;;;12.50;8.10;;;13.40;99.90;;;;;;5048046;28;20449;-76
2023/05/10 00:39:28;;;;;;;12.07;7.82;;;13.40;99.90;;;;;;5049544;28;20131;-76
2023/05/10 00:41:54;;;;;;;11.45;7.57;;;13.30;99.90;;;;;;5048929;28;20041;-76
2023/05/10 00:44:20;;;;;;;11.50;7.30;;;13.30;99.90;;;;;;5044291;28;20413;-76
2023/05/10 00:46:46;;;;;;;11.43;7.63;;;13.30;99.90;;;;;;5044540;28;20044;-76
2023/05/10 00:49:12;;;;;;;14.00;8.43;;;13.20;99.90;;;;;;5058292;28;20044;-76
2023/05/10 00:51:38;;;;;;;13.05;7.80;;;13.20;99.90;;;;;;5041777;28;20040;-76
2023/05/10 00:54:05;;;;;;;13.65;8.70;;;13.20;99.90;;;;;;5051441;28;20056;-76
2023/05/10 00:56:31;;;;;;;12.25;8.60;;;13.30;99.90;;;;;;5052296;28;20040;-76
2023/05/10 00:58:57;;;;;;;14.60;8.75;;;13.30;99.90;;;;;;5046238;28;20450;-76
2023/05/10 01:01:22;;;;;;;12.75;8.48;;;13.30;99.90;;;;;;5023218;28;20115;-76
2023/05/10 01:03:49;;;;;;;12.95;9.05;;;13.20;99.90;;;;;;5058217;28;20037;-76
2023/05/10 01:06:14;;;;;;;12.95;8.52;;;13.20;99.90;;;;;;5050483;28;20029;-76
2023/05/10 01:08:40;;;;;;;12.00;8.23;;;13.30;99.90;;;;;;5042562;28;20386;-76
2023/05/10 01:11:06;;;;;;;12.32;8.30;;;13.30;99.90;;;;;;5046082;28;20044;-76
2023/05/10 01:13:39;;;;;;;12.07;8.23;;;13.30;99.90;;;;;;5029193;28;20032;-76
2023/05/10 01:16:06;;;;;;;11.82;7.85;;;13.20;99.90;;;;;;5070190;28;20073;-76
2023/05/10 01:18:38;;;;;;;12.38;8.07;;;13.20;99.90;;;;;;5045421;28;20252;-76
2023/05/10 01:21:13;;;;;;;11.30;7.30;;;13.20;99.90;;;;;;5065014;28;20198;-76
2023/05/10 01:24:09;;;;;;;13.30;7.30;;;13.20;99.90;;;;;;5052761;28;20044;-76
2023/05/10 01:27:00;;;;;;;12.48;7.70;;;13.20;99.90;;;;;;5050427;28;20037;-76
2023/05/10 01:29:52;;;;;;;11.40;7.90;;;13.20;99.90;;;;;;5038191;28;20103;-76
2023/05/10 01:32:42;;;;;;;11.33;7.60;;;13.20;99.90;;;;;;5048797;28;20044;-76
2023/05/10 01:35:30;;;;;;;12.63;7.22;;;13.20;99.90;;;;;;5033773;28;20120;-76
2023/05/10 01:38:17;;;;;;;11.73;7.70;;;13.20;99.90;;;;;;5036945;28;20048;-76
2023/05/10 01:40:58;;;;;;;12.07;6.93;;;13.20;99.90;;;;;;5052218;28;20044;-76
2023/05/10 01:43:30;;;;;;;11.23;7.43;;;13.20;99.90;;;;;;5054704;28;20028;-76
2023/05/10 01:45:56;;;;;;;11.50;6.90;;;13.10;99.90;;;;;;5049150;28;20102;-76
2023/05/10 01:48:24;;;;;;;10.75;6.80;;;13.10;99.90;;;;;;5052259;28;20045;-76
2023/05/10 01:50:51;;;;;;;10.50;6.20;;;13.10;99.90;;;;;;5048642;28;20042;-76
2023/05/10 01:53:19;;;;;;;10.75;6.28;;;13.10;99.90;;;;;;5047625;28;20131;-76
2023/05/10 01:55:52;;;;;;;10.43;6.35;;;13.10;99.90;;;;;;5044430;28;20043;-76
2023/05/10 01:58:25;;;;;;;10.82;6.45;;;13.10;99.90;;;;;;5042931;28;20044;-76
2023/05/10 02:00:52;;;;;;;10.60;6.50;;;13.10;99.90;;;;;;5052197;28;20120;-76
2023/05/10 02:03:23;;;;;;;11.07;6.70;;;13.10;99.90;;;;;;5049478;28;20335;-76
2023/05/10 02:05:50;;;;;;;10.90;7.22;;;13.10;99.90;;;;;;5054640;28;20376;-76
2023/05/10 02:08:18;;;;;;;11.43;7.40;;;13.10;99.90;;;;;;5065430;28;20045;-76
2023/05/10 02:10:46;;;;;;;14.07;7.97;;;13.10;99.90;;;;;;5046835;28;20032;-76
2023/05/10 02:13:13;;;;;;;12.02;7.72;;;13.10;99.90;;;;;;5062737;28;20648;-76
2023/05/10 02:15:41;;;;;;;13.55;8.52;;;13.00;99.90;;;;;;5041859;28;20045;-76
2023/05/10 02:18:09;;;;;;;11.75;7.60;;;13.00;99.90;;;;;;5046914;28;20048;-76
2023/05/10 02:20:35;;;;;;;12.77;7.82;;;13.10;99.90;;;;;;5035026;28;20041;-76
2023/05/10 02:23:03;;;;;;;12.10;7.05;;;13.00;99.90;;;;;;5040171;28;20584;-75
2023/05/10 02:25:30;;;;;;;12.00;7.20;;;13.00;99.90;;;;;;5052853;28;20473;-76
2023/05/10 02:27:59;;;;;;;12.95;7.60;;;12.90;99.90;;;;;;5047240;28;20197;-76
2023/05/10 02:30:26;;;;;;;11.55;6.93;;;13.00;99.90;;;;;;5047994;28;20036;-76
2023/05/10 02:32:52;;;;;;;11.55;7.75;;;12.90;99.90;;;;;;5044910;28;20061;-76
2023/05/10 02:35:19;;;;;;;10.70;7.05;;;12.90;99.90;;;;;;5040690;28;20041;-76
2023/05/10 02:37:46;;;;;;;10.60;6.85;;;12.90;99.90;;;;;;5037515;28;20051;-76
2023/05/10 02:40:14;;;;;;;11.68;7.13;;;12.90;99.90;;;;;;5051294;28;20102;-76
2023/05/10 02:42:42;;;;;;;11.80;7.82;;;12.90;99.90;;;;;;5068222;28;20159;-76
2023/05/10 02:45:13;;;;;;;12.57;8.05;;;12.90;99.90;;;;;;5056375;28;20112;-76
2023/05/10 02:47:39;;;;;;;12.38;8.40;;;14.00;99.90;;;;;;5053580;28;20088;-76
2023/05/10 02:50:05;;;;;;;12.60;7.68;;;12.80;99.90;;;;;;5069587;28;20045;-75
2023/05/10 02:52:41;;;;;;;12.15;7.90;;;12.80;99.90;;;;;;5054831;28;20098;-75
2023/05/10 02:55:11;;;;;;;13.02;8.18;;;12.80;99.90;;;;;;5048996;28;20112;-75
2023/05/10 02:57:42;;;;;;;12.57;8.00;;;12.80;99.90;;;;;;5072647;28;20127;-75
2023/05/10 03:00:08;;;;;;;12.63;7.82;;;12.80;99.90;;;;;;5051317;28;20702;-76
2023/05/10 03:02:36;;;;;;;12.63;8.52;;;12.80;99.90;;;;;;5060651;28;20041;-75
2023/05/10 03:05:02;;;;;;;12.55;8.00;;;12.80;99.90;;;;;;5062042;28;20052;-75
2023/05/10 03:07:28;;;;;;;12.63;8.20;;;12.80;99.90;;;;;;5053904;28;20045;-76
2023/05/10 03:09:54;;;;;;;12.65;8.02;;;12.80;99.90;;;;;;5037798;28;20761;-75
2023/05/10 03:12:41;;;;;;;13.00;8.15;;;12.80;99.90;;;;;;5041192;28;20375;-75
2023/05/10 03:15:20;;;;;;;13.48;8.60;;;12.80;99.90;;;;;;5054923;28;20040;-76
2023/05/10 03:18:04;;;;;;;13.90;8.73;;;12.80;99.90;;;;;;5054657;28;20044;-75
2023/05/10 03:20:36;;;;;;;13.65;9.13;;;12.80;99.90;;;;;;5055344;28;20032;-76
2023/05/10 03:23:12;;;;;;;14.35;9.05;;;12.80;99.90;;;;;;5050890;28;20182;-76
2023/05/10 03:25:39;;;;;;;14.07;9.45;;;12.80;99.90;;;;;;5052892;28;20131;-76
2023/05/10 03:28:06;;;;;;;15.20;9.85;;;12.80;99.90;;;;;;5047795;28;20037;-76
2023/05/10 03:30:33;;;;;;;14.48;9.25;;;12.80;99.90;;;;;;5051069;28;20041;-76
2023/05/10 03:33:06;;;;;;;14.07;9.05;;;12.90;99.90;;;;;;5051039;28;20040;-75
2023/05/10 03:35:32;;;;;;;15.07;9.43;;;12.80;99.90;;;;;;5066687;28;20102;-75
2023/05/10 03:37:57;;;;;;;15.25;9.98;;;12.80;99.90;;;;;;5052527;28;20795;-75
2023/05/10 03:40:24;;;;;;;14.63;9.68;;;12.80;99.90;;;;;;5042996;28;20041;-75
2023/05/10 03:42:50;;;;;;;17.40;10.32;;;12.90;99.90;;;;;;5049992;28;20107;-75
2023/05/10 03:45:15;;;;;;;16.83;10.85;;;12.80;99.90;;;;;;5053799;28;20045;-75
2023/05/10 03:47:41;;;;;;;15.93;9.80;;;12.80;99.90;;;;;;5034954;28;20466;-76
2023/05/10 03:50:07;;;;;;;16.10;10.35;;;12.80;99.90;;;;;;5053018;28;20051;-75
2023/05/10 03:52:33;;;;;;;16.17;10.65;;;12.80;99.90;;;;;;5039984;28;20029;-75
2023/05/10 03:54:59;;;;;;;18.05;11.23;;;12.80;99.90;;;;;;5036278;28;20029;-75
2023/05/10 03:57:24;;;;;;;17.92;11.75;;;12.80;99.90;;;;;;5051483;28;20036;-75
2023/05/10 03:59:50;;;;;;;17.50;11.45;;;12.90;99.90;;;;;;5038687;28;20118;-75
2023/05/10 04:02:16;;;;;;;17.67;11.45;;;12.80;99.90;;;;;;5058034;28;20499;-75
2023/05/10 04:04:42;;;;;;;18.77;11.75;;;12.80;99.90;;;;;;5028713;28;20047;-75
2023/05/10 04:07:09;;;;;;;18.58;11.88;;;12.80;99.90;;;;;;5022388;28;20044;-75
2023/05/10 04:09:35;;;;;;;19.20;12.18;;;12.80;99.90;;;;;;5055504;28;20037;-75
2023/05/10 04:12:02;;;;;;;19.98;12.70;;;12.80;99.90;;;;;;5032374;28;20029;-75
2023/05/10 04:14:28;;;;;;;20.35;12.73;;;12.80;99.90;;;;;;5038104;28;20131;-75
2023/05/10 04:16:53;;;;;;;19.35;11.68;;;12.80;99.90;;;;;;5057523;28;20111;-75
2023/05/10 04:19:19;;;;;;;22.48;12.90;;;12.80;99.90;;;;;;5028128;28;20047;-76
2023/05/10 04:21:45;;;;;;;22.20;12.63;;;12.80;99.90;;;;;;5053032;28;20040;-75
2023/05/10 04:24:10;;;;;;;22.85;13.05;;;12.80;99.90;;;;;;5059225;28;20036;-75
2023/05/10 04:26:36;;;;;;;22.25;13.40;;;12.80;99.90;;;;;;5059791;28;20458;-75
2023/05/10 04:29:02;;;;;;;21.90;13.13;;;12.80;99.90;;;;;;5053655;28;20032;-75
2023/05/10 04:31:28;;;;;;;21.17;12.73;;;12.80;99.90;;;;;;5049911;28;20578;-75
2023/05/10 04:33:53;;;;;;;22.05;13.13;;;12.80;99.90;;;;;;5053252;28;20059;-75
2023/05/10 04:36:19;;;;;;;23.55;12.82;;;12.80;99.90;;;;;;5047480;28;20512;-75
2023/05/10 04:38:45;;;;;;;20.00;11.85;;;12.80;99.90;;;;;;5052187;28;20101;-75
2023/05/10 04:41:11;;;;;;;23.48;13.10;;;12.80;99.90;;;;;;5051859;28;20052;-75
2023/05/10 04:43:37;;;;;;;20.85;12.40;;;12.80;99.90;;;;;;5071831;28;20126;-76
2023/05/10 04:46:04;;;;;;;22.20;12.02;;;12.80;99.90;;;;;;5064234;28;20438;-75
2023/05/10 04:48:30;;;;;;;20.00;11.70;;;12.80;99.90;;;;;;5072220;28;20044;-76
2023/05/10 04:50:56;;;;;;;20.05;11.27;;;12.80;99.90;;;;;;5062006;28;20047;-76
2023/05/10 04:53:22;;;;;;;17.77;10.30;;;12.80;99.90;;;;;;5046603;28;20058;-77
2023/05/10 04:55:48;;;;;;;19.52;10.40;;;12.80;99.90;;;;;;5052702;28;20497;-76
2023/05/10 04:58:14;;;;;;;14.63;8.38;;;12.80;99.90;;;;;;5048819;28;20044;-77
2023/05/10 05:00:40;;;;;;;13.52;7.63;;;12.80;99.90;;;;;;5056868;28;20066;-77
2023/05/10 05:03:06;;;;;;;11.93;5.78;;;12.70;99.90;;;;;;5044963;28;20044;-76
2023/05/10 05:05:31;;;;;;;11.25;6.50;;;12.70;99.90;;;;;;5037338;28;20044;-76
2023/05/10 05:07:57;;;;;;;10.75;5.20;;;12.70;99.90;;;;;;5049339;28;20482;-76
2023/05/10 05:10:23;;;;;;;8.65;4.50;;;12.70;99.90;;;;;;5041356;28;20488;-76
2023/05/10 05:12:48;;;;;;;9.70;3.92;;;12.70;99.90;;;;;;5046105;28;20044;-76
2023/05/10 05:15:16;;;;;;;9.75;4.45;;;12.70;99.90;;;;;;5054836;28;20079;-76
2023/05/10 05:17:42;;;;;;;9.00;4.30;;;12.70;99.90;;;;;;5054106;28;20390;-76
2023/05/10 05:20:09;;;;;;;8.30;4.03;;;12.70;99.90;;;;;;5053084;28;20048;-77
2023/05/10 05:22:36;;;;;;;10.35;4.68;;;12.70;99.90;;;;;;5037806;28;20039;-77
2023/05/10 05:25:03;;;;;;;9.13;4.47;;;12.60;99.90;;;;;;5052110;28;20119;-77
2023/05/10 05:27:29;;;;;;;9.45;4.38;;;12.70;99.90;;;;;;5045255;28;20464;-77
2023/05/10 05:29:58;;;;;;;8.80;4.60;;;12.70;99.90;;;;;;5048313;28;20058;-77
2023/05/10 05:32:25;;;;;;;10.52;4.53;;;12.70;99.90;;;;;;5057963;28;20039;-75
2023/05/10 05:34:51;;;;;;;8.20;4.00;;;12.70;99.90;;;;;;5049089;28;20604;-76
2023/05/10 05:37:18;;;;;;;8.98;4.00;;;12.70;99.90;;;;;;5050043;28;20044;-76
2023/05/10 05:39:45;;;;;;;9.25;4.10;;;12.70;99.90;;;;;;5050717;28;20506;-76
2023/05/10 05:42:12;;;;;;;8.32;4.10;;;12.70;99.90;;;;;;5075467;28;20051;-76
2023/05/10 05:44:38;;;;;;;9.10;4.50;;;12.70;99.90;;;;;;5074919;28;20515;-76
2023/05/10 05:47:04;;;;;;;9.00;4.43;;;12.70;99.90;;;;;;5050073;28;20090;-76
2023/05/10 05:49:30;;;;;;;8.77;4.35;;;12.60;99.90;;;;;;5054072;28;20402;-76
2023/05/10 05:52:03;;;;;;;11.07;4.60;;;12.70;99.90;;;;;;5049840;28;20043;-76
2023/05/10 05:54:30;;;;;;;10.23;4.97;;;12.70;99.90;;;;;;5050110;28;20064;-76
2023/05/10 05:57:00;;;;;;;10.13;4.70;;;12.70;99.90;;;;;;5051647;28;20043;-76
2023/05/10 05:59:26;;;;;;;9.70;4.75;;;12.60;99.90;;;;;;5036395;28;20043;-76
2023/05/10 06:01:52;;;;;;;9.90;4.72;;;12.70;99.90;;;;;;5052547;28;20040;-76
2023/05/10 06:04:18;;;;;;;9.05;4.47;;;12.70;99.90;;;;;;5049782;28;20401;-76
2023/05/10 06:06:44;;;;;;;8.40;3.83;;;12.70;99.90;;;;;;5052441;28;20044;-76
2023/05/10 06:09:11;;;;;;;8.73;4.18;;;12.70;99.90;;;;;;5051544;28;20044;-75
2023/05/10 06:11:37;;;;;;;9.27;4.57;;;12.70;99.90;;;;;;5045542;28;20062;-76
2023/05/10 06:14:04;;;;;;;9.40;4.95;;;12.70;99.90;;;;;;5048862;28;20529;-76
2023/05/10 06:16:30;;;;;;;10.00;4.50;;;12.70;99.90;;;;;;5040080;28;20032;-76
2023/05/10 06:18:56;;;;;;;9.27;4.30;;;12.70;99.90;;;;;;5052614;28;20040;-77
2023/05/10 06:21:22;;;;;;;9.15;4.20;;;12.70;99.90;;;;;;5041566;28;20094;-76
2023/05/10 06:23:48;;;;;;;8.55;4.05;;;12.80;99.90;;;;;;5042316;28;20517;-76
2023/05/10 06:26:13;;;;;;;7.65;3.20;;;12.80;99.90;;;;;;5046045;28;20043;-76
2023/05/10 06:28:39;;;;;;;8.60;3.67;;;12.80;99.90;;;;;;5051206;28;20063;-76
2023/05/10 06:31:06;;;;;;;7.95;3.28;;;12.80;99.90;;;;;;5043906;28;20465;-76
2023/05/10 06:33:32;;;;;;;7.65;3.13;;;12.80;99.90;;;;;;5030633;28;20031;-76
2023/05/10 06:35:58;;;;;;;6.93;2.53;;;12.80;99.90;;;;;;5050118;28;20085;-76
2023/05/10 06:38:24;;;;;;;5.60;2.20;;;12.80;99.90;;;;;;5041091;28;20448;-76
2023/05/10 06:40:49;;;;;;;5.30;2.08;;;12.80;99.90;;;;;;5044390;28;20044;-76
2023/05/10 06:43:15;;;;;;;3.00;1.38;;;12.80;99.90;;;;;;5052483;28;20044;-76
2023/05/10 06:45:41;;;;;;;3.92;1.50;;;12.80;99.90;;;;;;5063564;28;20489;-76
2023/05/10 06:48:07;;;;;;;2.75;1.10;;;13.70;99.90;;;;;;5058361;28;20120;-76
2023/05/10 06:50:33;;;;;;;2.65;1.33;;;12.70;99.90;;;;;;5050791;28;20379;-76
2023/05/10 06:52:59;;;;;;;2.97;1.30;;;12.70;99.90;;;;;;5055213;28;20036;-76
2023/05/10 06:55:25;;;;;;;5.82;1.98;;;12.70;99.90;;;;;;5049983;28;20032;-76
2023/05/10 06:57:51;;;;;;;6.25;2.50;;;12.60;99.90;;;;;;5029903;28;20089;-76
2023/05/10 07:00:18;;;;;;;7.07;2.97;;;12.60;99.90;;;;;;5014427;28;20024;-76
2023/05/10 07:02:44;;;;;;;8.90;3.85;;;12.60;99.90;;;;;;5051778;28;20040;-76
2023/05/10 07:05:10;;;;;;;8.82;4.30;;;12.60;99.90;;;;;;5048684;28;20040;-76
2023/05/10 07:07:35;;;;;;;8.05;3.97;;;12.50;99.90;;;;;;5049178;28;20028;-76
2023/05/10 07:10:02;;;;;;;9.65;4.10;;;12.50;99.90;;;;;;5049044;28;20524;-75
2023/05/10 07:12:28;;;;;;;9.18;4.78;;;12.50;99.90;;;;;;5050764;28;20048;-75
2023/05/10 07:14:53;;;;;;;8.40;4.13;;;12.40;99.90;;;;;;5043619;28;20098;-75
2023/05/10 07:17:19;;;;;;;9.30;4.80;;;12.40;99.90;;;;;;5044626;28;20055;-75
2023/05/10 07:19:45;;;;;;;9.43;5.18;;;12.40;99.90;;;;;;5044934;28;20044;-76
2023/05/10 07:22:11;;;;;;;10.40;5.22;;;12.40;99.90;;;;;;5048906;28;20236;-75
2023/05/10 07:24:37;;;;;;;10.27;5.43;;;11.70;99.90;;;;;;5065279;28;20040;-76
2023/05/10 07:27:02;;;;;;;11.60;5.97;;;12.40;99.90;;;;;;5052820;28;20066;-75
2023/05/10 07:29:29;;;;;;;11.15;5.68;;;12.50;99.90;;;;;;5054110;28;20040;-76
2023/05/10 07:31:55;;;;;;;11.50;6.07;;;12.40;99.90;;;;;;5057618;28;20040;-75
2023/05/10 07:34:20;;;;;;;11.80;6.22;;;13.80;99.90;;;;;;5049638;28;20092;-76
2023/05/10 07:36:46;;;;;;;10.18;5.30;;;12.40;99.90;;;;;;5052709;28;20039;-76
2023/05/10 07:39:12;;;;;;;10.80;5.82;;;12.40;99.90;;;;;;5060222;28;20119;-76
2023/05/10 07:41:38;;;;;;;12.10;6.40;;;12.50;99.90;;;;;;5049484;28;20044;-76
2023/05/10 07:44:04;;;;;;;10.43;5.53;;;12.50;99.90;;;;;;5061288;28;20028;-76
2023/05/10 07:46:30;;;;;;;10.43;5.43;;;12.50;99.90;;;;;;5058001;28;20457;-76
2023/05/10 07:48:56;;;;;;;11.32;5.55;;;12.50;99.90;;;;;;5042747;28;20036;-76
2023/05/10 07:51:22;;;;;;;12.52;4.90;;;12.60;99.90;;;;;;5054932;28;20044;-76
2023/05/10 07:53:47;;;;;;;8.75;4.40;;;12.60;99.90;;;;;;5033347;28;20069;-76
2023/05/10 07:56:26;;;;;;;8.75;4.20;;;12.70;99.90;;;;;;5053755;28;20095;-76
2023/05/10 07:58:52;;;;;;;8.38;3.80;;;12.70;99.90;;;;;;5062662;28;20040;-75
2023/05/10 08:01:17;;;;;;;8.80;3.30;;;12.70;99.90;;;;;;5045788;28;20101;-76
2023/05/10 08:03:43;;;;;;;8.90;3.78;;;12.80;99.90;;;;;;5053419;28;20040;-76
2023/05/10 08:06:09;;;;;;;9.38;3.30;;;12.80;99.90;;;;;;5054408;28;20040;-76
2023/05/10 08:08:35;;;;;;;7.47;3.33;;;12.80;99.90;;;;;;5051602;28;20040;-76
2023/05/10 08:11:00;;;;;;;6.95;2.88;;;12.80;99.90;;;;;;5029080;28;20044;-76
2023/05/10 08:13:26;;;;;;;6.43;2.53;;;12.80;99.90;;;;;;5051575;28;20032;-76
2023/05/10 08:15:52;;;;;;;7.32;2.90;;;12.70;99.90;;;;;;5063893;28;20218;-76
2023/05/10 08:18:19;;;;;;;7.90;2.83;;;12.70;99.90;;;;;;5050998;28;20066;-76
2023/05/10 08:20:45;;;;;;;6.90;2.90;;;12.70;99.90;;;;;;5054790;28;20115;-76
2023/05/10 08:23:13;;;;;;;7.18;2.85;;;12.80;99.90;;;;;;5053274;28;20569;-76
2023/05/10 08:25:38;;;;;;;6.88;3.10;;;12.70;99.90;;;;;;5064345;28;20123;-76
2023/05/10 08:28:04;;;;;;;7.78;3.50;;;12.60;99.90;;;;;;5064502;28;20143;-76
2023/05/10 08:30:30;;;;;;;8.38;3.95;;;12.70;99.90;;;;;;5042343;28;20079;-76
2023/05/10 08:32:56;;;;;;;7.88;3.78;;;12.70;99.90;;;;;;5045628;28;20098;-75
2023/05/10 08:35:21;;;;;;;8.93;4.07;;;12.70;99.90;;;;;;5047100;28;20119;-76
2023/05/10 08:37:47;;;;;;;8.57;4.10;;;12.70;99.90;;;;;;5055084;28;20056;-75
2023/05/10 08:40:15;;;;;;;8.80;4.10;;;12.70;99.90;;;;;;5043403;28;20044;-75
2023/05/10 08:42:47;;;;;;;10.50;4.20;;;12.70;99.90;;;;;;5044789;28;20109;-75
2023/05/10 08:45:15;;;;;;;8.50;4.43;;;12.70;99.90;;;;;;5048306;28;20122;-76
2023/05/10 08:47:41;;;;;;;8.30;4.30;;;12.60;99.90;;;;;;5051125;28;20407;-75
2023/05/10 08:50:08;;;;;;;8.98;4.38;;;12.70;99.90;;;;;;5033662;28;20044;-76
2023/05/10 08:52:38;;;;;;;8.80;4.30;;;12.70;99.90;;;;;;5070321;28;20098;-75
2023/05/10 08:55:04;;;;;;;7.72;3.63;;;12.70;99.90;;;;;;5053748;28;20051;-75
2023/05/10 08:57:30;;;;;;;8.85;4.00;;;12.70;99.90;;;;;;5048963;28;20156;-76
2023/05/10 08:59:55;;;;;;;8.05;3.88;;;12.70;99.90;;;;;;5057515;28;20111;-75
2023/05/10 09:02:23;;;;;;;7.75;3.63;;;12.80;99.90;;;;;;5053653;28;20040;-76
2023/05/10 09:04:49;;;;;;;8.68;4.20;;;12.80;99.90;;;;;;5039859;28;20040;-75
2023/05/10 09:07:15;;;;;;;8.55;4.55;;;12.80;99.90;;;;;;5061860;28;20047;-75
2023/05/10 09:09:41;;;;;;;8.70;4.63;;;12.80;99.90;;;;;;5058826;28;20466;-75
2023/05/10 09:12:10;;;;;;;9.45;4.93;;;12.80;99.90;;;;;;5062480;28;20043;-75
2023/05/10 09:14:37;;;;;;;8.68;4.00;;;12.80;99.90;;;;;;5042183;28;20127;-75
2023/05/10 09:17:04;;;;;;;7.88;3.30;;;12.80;99.90;;;;;;5050648;28;20177;-75
2023/05/10 09:19:30;;;;;;;7.68;3.45;;;12.80;99.90;;;;;;5054839;28;20051;-75
2023/05/10 09:21:56;;;;;;;12.00;4.10;;;12.80;99.90;;;;;;5049149;28;20044;-75
2023/05/10 09:24:26;;;;;;;8.75;3.90;;;12.80;99.90;;;;;;5044856;28;20056;-75
2023/05/10 09:26:52;;;;;;;15.20;5.13;;;12.90;99.90;;;;;;5049411;28;20533;-75
2023/05/10 09:29:18;;;;;;;10.10;4.32;;;12.80;99.90;;;;;;5047426;28;20048;-75
2023/05/10 09:31:51;;;;;;;9.07;4.30;;;12.80;99.90;;;;;;5049038;28;20121;-74
2023/05/10 09:34:19;;;;;;;8.43;3.72;;;12.80;99.90;;;;;;5050560;28;20098;-75
2023/05/10 09:36:54;;;;;;;9.35;3.80;;;12.70;99.90;;;;;;5070415;28;20045;-75
2023/05/10 09:39:20;;;;;;;8.93;3.38;;;12.80;99.90;;;;;;5054116;28;20549;-75
2023/05/10 09:41:46;;;;;;;7.80;3.20;;;12.90;99.90;;;;;;5055791;28;20104;-75
2023/05/10 09:44:17;;;;;;;8.00;3.25;;;13.00;99.90;;;;;;5039646;28;20410;-75
2023/05/10 09:46:48;;;;;;;7.53;3.30;;;13.10;99.90;;;;;;5062106;28;20048;-74
2023/05/10 09:49:14;;;;;;;9.63;3.78;;;13.30;99.90;;;;;;5049414;28;20474;-74
2023/05/10 09:51:40;;;;;;;8.98;3.83;;;13.30;99.90;;;;;;5061094;28;20090;-75
2023/05/10 09:54:12;;;;;;;8.82;3.47;;;13.40;99.90;;;;;;5041455;28;20048;-74
2023/05/10 09:56:40;;;;;;;7.28;3.22;;;13.40;99.90;;;;;;5057786;28;20051;-75
2023/05/10 09:59:07;;;;;;;8.48;3.83;;;13.50;99.90;;;;;;5050398;28;20186;-74
2023/05/10 10:01:34;;;;;;;8.50;4.25;;;13.50;99.90;;;;;;5037543;28;20048;-74
2023/05/10 10:04:03;;;;;;;9.65;4.38;;;13.50;99.90;;;;;;5052755;28;20098;-74
2023/05/10 10:06:34;;;;;;;9.48;4.90;;;13.60;99.90;;;;;;5053473;28;20149;-75
2023/05/10 10:09:00;;;;;;;8.50;4.50;;;13.60;99.90;;;;;;5055507;28;20040;-74
2023/05/10 10:11:25;;;;;;;10.18;5.22;;;13.60;99.90;;;;;;5045363;28;20037;-74
2023/05/10 10:13:51;;;;;;;8.85;4.45;;;13.70;99.90;;;;;;5055727;28;20471;-74
2023/05/10 10:16:17;;;;;;;10.10;4.70;;;13.70;99.90;;;;;;5042737;28;20032;-74
2023/05/10 10:18:43;;;;;;;9.10;4.50;;;13.70;99.90;;;;;;5048985;28;20040;-74
2023/05/10 10:21:09;;;;;;;8.60;4.25;;;13.80;99.90;;;;;;5055815;28;20050;-74
2023/05/10 10:23:35;;;;;;;8.25;4.10;;;13.80;99.90;;;;;;5047483;28;20037;-74
2023/05/10 10:26:03;;;;;;;8.07;3.95;;;13.80;99.90;;;;;;5050942;28;20117;-75
2023/05/10 10:29:05;;;;;;;8.23;3.50;;;13.70;99.90;;;;;;5050547;28;20040;-75
2023/05/10 10:31:34;;;;;;;7.90;3.58;;;13.70;99.90;;;;;;5043403;28;20036;-75
2023/05/10 10:34:16;;;;;;;8.10;3.63;;;13.80;99.90;;;;;;5070802;28;20093;-75
2023/05/10 10:36:46;;;;;;;8.88;3.90;;;13.90;99.90;;;;;;5061446;28;20194;-75
2023/05/10 10:39:13;;;;;;;8.30;3.42;;;14.00;99.90;;;;;;5054198;28;20121;-75
2023/05/10 10:41:53;;;;;;;8.68;3.35;;;14.10;99.90;;;;;;5066134;28;20461;-75
2023/05/10 10:44:26;;;;;;;8.70;2.90;;;14.30;99.90;;;;;;5056849;28;20051;-75
2023/05/10 10:47:28;;;;;;;7.60;3.00;;;14.40;99.90;;;;;;5061482;28;20370;-74
2023/05/10 10:50:09;;;;;;;8.13;3.10;;;14.40;99.90;;;;;;5055511;28;20049;-75
2023/05/10 10:52:39;;;;;;;8.82;3.40;;;14.30;99.90;;;;;;5044214;28;20032;-75
2023/05/10 10:55:10;;;;;;;8.85;3.40;;;14.40;99.90;;;;;;5056122;28;20283;-74
2023/05/10 10:58:04;;;;;;;7.82;2.95;;;14.40;99.90;;;;;;5053660;28;20047;-74
2023/05/10 11:00:36;;;;;;;8.30;2.85;;;14.60;99.90;;;;;;5053568;28;20046;-74
2023/05/10 11:03:07;;;;;;;7.35;2.80;;;14.70;99.90;;;;;;5045221;28;20098;-75
2023/05/10 11:05:32;;;;;;;12.25;2.95;;;14.70;99.90;;;;;;5054960;28;20055;-74
2023/05/10 11:08:00;;;;;;;8.75;2.97;;;14.70;99.90;;;;;;5064937;28;20038;-74
2023/05/10 11:10:27;;;;;;;7.30;2.92;;;14.70;99.90;;;;;;5034937;28;20053;-75
2023/05/10 11:13:03;;;;;;;6.50;2.53;;;14.80;99.90;;;;;;5058841;28;20033;-75
2023/05/10 11:15:31;;;;;;;7.03;3.10;;;14.90;99.90;;;;;;5048111;28;20143;-74
2023/05/10 11:17:56;;;;;;;8.20;3.50;;;14.90;99.90;;;;;;5054047;28;20035;-74
2023/05/10 11:20:24;;;;;;;8.98;3.63;;;14.90;99.90;;;;;;5052460;28;20419;-75
2023/05/10 11:22:54;;;;;;;7.82;3.58;;;14.90;99.90;;;;;;5048282;28;20040;-75
2023/05/10 11:25:26;;;;;;;8.85;3.83;;;14.80;99.90;;;;;;5041180;28;20519;-74
2023/05/10 11:27:51;;;;;;;9.30;4.00;;;14.80;99.90;;;;;;5059467;28;20031;-75
2023/05/10 11:30:17;;;;;;;8.77;4.30;;;14.80;99.90;;;;;;5047982;28;20483;-74
2023/05/10 11:32:43;;;;;;;9.77;4.50;;;14.70;99.90;;;;;;5052544;28;20517;-74
2023/05/10 11:35:11;;;;;;;9.93;4.80;;;14.70;99.90;;;;;;5054583;28;20032;-74
2023/05/10 11:37:41;;;;;;;9.80;4.57;;;14.70;99.90;;;;;;5052292;28;20106;-74
2023/05/10 11:40:09;;;;;;;9.57;4.70;;;14.70;99.90;;;;;;5043801;28;20117;-74
2023/05/10 11:42:37;;;;;;;9.70;5.18;;;14.80;99.90;;;;;;5054485;28;20040;-74
2023/05/10 11:45:03;;;;;;;10.80;5.18;;;14.80;99.90;;;;;;5055570;28;20044;-75
2023/05/10 11:47:29;;;;;;;11.13;5.45;;;14.80;99.90;;;;;;5056567;28;20098;-74
2023/05/10 11:49:55;;;;;;;11.40;6.00;;;14.80;99.90;;;;;;5042417;28;20040;-74
2023/05/10 11:52:21;;;;;;;11.77;5.75;;;14.80;99.90;;;;;;5047606;28;20297;-74
2023/05/10 11:54:54;;;;;;;10.95;6.28;;;14.80;99.90;;;;;;5032509;28;20039;-74
2023/05/10 11:57:21;;;;;;;10.68;5.80;;;14.80;99.90;;;;;;5050155;28;20055;-74
2023/05/10 11:59:47;;;;;;;12.00;6.38;;;14.80;99.90;;;;;;5051565;28;20458;-74
2023/05/10 12:02:16;;;;;;;11.68;6.22;;;14.90;99.90;;;;;;5052054;28;20041;-75
2023/05/10 12:04:42;;;;;;;12.65;6.10;;;14.80;99.90;;;;;;5015513;28;20040;-75
2023/05/10 12:07:07;;;;;;;11.30;6.03;;;14.90;99.90;;;;;;5060817;28;20196;-75
2023/05/10 12:09:33;;;;;;;11.80;6.40;;;14.90;99.90;;;;;;5047959;28;20032;-74
2023/05/10 12:11:59;;;;;;;13.80;6.38;;;14.90;99.90;;;;;;5040140;28;20058;-74
2023/05/10 12:14:25;;;;;;;12.13;5.88;;;15.00;99.90;;;;;;5055484;28;20047;-74
2023/05/10 12:16:51;;;;;;;10.65;6.10;;;15.10;99.90;;;;;;5043804;28;20044;-74
2023/05/10 12:19:22;;;;;;;11.07;5.82;;;15.10;99.90;;;;;;5050214;28;20566;-74
2023/05/10 12:21:48;;;;;;;11.50;6.30;;;15.00;99.90;;;;;;5058479;28;20043;-74
2023/05/10 12:24:17;;;;;;;11.48;5.60;;;15.00;99.90;;;;;;5051543;28;20036;-73
2023/05/10 12:26:45;;;;;;;11.60;6.07;;;15.00;99.90;;;;;;5048358;28;20040;-74
2023/05/10 12:29:18;;;;;;;11.32;6.45;;;15.00;99.90;;;;;;5055239;28;20071;-74
2023/05/10 12:31:58;;;;;;;11.40;6.07;;;15.00;99.90;;;;;;5051546;28;20028;-74
2023/05/10 12:34:32;;;;;;;11.38;6.25;;;14.90;99.90;;;;;;5052024;28;20160;-74
2023/05/10 12:36:58;;;;;;;12.35;6.43;;;14.80;99.90;;;;;;5062623;28;20076;-73
2023/05/10 12:39:24;;;;;;;12.48;6.40;;;14.80;99.90;;;;;;5054739;28;20082;-74
2023/05/10 12:41:51;;;;;;;11.82;6.50;;;14.70;99.90;;;;;;5045734;28;20118;-74
2023/05/10 12:44:17;;;;;;;11.73;6.55;;;14.60;99.90;;;;;;5042618;28;20043;-74